createdAt,value
2023-03-21T00:00:01.802Z,100427.28
2023-03-21T00:05:15.087Z,100422.19
2023-03-21T00:10:29.759Z,100425.50
2023-03-21T00:16:03.783Z,100422.19
2023-03-21T00:26:34.224Z,100417.94
2023-03-21T00:31:41.255Z,100415.34
2023-03-21T00:36:44.247Z,100409.34
2023-03-21T00:41:46.309Z,100409.34
2023-03-21T00:47:04.250Z,100410.16
2023-03-21T00:52:27.369Z,100416.16
2023-03-21T00:57:38.597Z,100412.75
2023-03-21T01:03:08.532Z,100405.06
2023-03-21T01:08:25.398Z,100406.81
2023-03-21T01:13:30.613Z,100399.94
2023-03-21T01:18:35.714Z,100406.84
2023-03-21T01:23:42.819Z,100394.03
2023-03-21T01:28:45.935Z,100391.50
2023-03-21T01:33:48.092Z,100394.88
2023-03-21T01:38:50.711Z,100394.84
2023-03-21T01:43:53.974Z,100391.53
2023-03-21T01:49:05.104Z,100383.91
2023-03-21T01:54:10.456Z,100376.28
2023-03-21T01:59:17.685Z,100378.97
2023-03-21T02:04:22.619Z,100375.56
2023-03-21T02:09:28.527Z,100382.50
2023-03-21T02:14:38.033Z,100379.13
2023-03-21T02:20:09.252Z,100386.78
2023-03-21T02:25:43.593Z,100379.81
2023-03-21T02:30:52.486Z,100382.34
2023-03-21T02:36:28.759Z,100378.97
2023-03-21T02:41:40.152Z,100375.47
2023-03-21T02:46:49.069Z,100378.00
2023-03-21T02:52:05.453Z,100386.56
2023-03-21T02:57:19.077Z,100390.84
2023-03-21T03:02:27.466Z,100395.13
2023-03-21T03:07:44.594Z,100389.97
2023-03-21T03:12:57.865Z,100401.09
2023-03-21T03:18:08.562Z,100397.66
2023-03-21T03:23:21.353Z,100404.41
2023-03-21T03:28:30.669Z,100400.19
2023-03-21T03:33:38.257Z,100399.34
2023-03-21T03:38:42.364Z,100398.50
2023-03-21T03:43:49.559Z,100403.63
2023-03-21T03:49:16.814Z,100404.47
2023-03-21T03:54:28.800Z,100412.16
2023-03-21T03:59:35.561Z,100401.94
2023-03-21T04:04:37.526Z,100401.19
2023-03-21T04:09:44.829Z,100407.22
2023-03-21T04:14:48.237Z,100400.44
2023-03-21T04:19:57.707Z,100400.44
2023-03-21T04:25:07.663Z,100398.72
2023-03-21T04:30:12.362Z,100402.16
2023-03-21T04:35:15.578Z,100404.72
2023-03-21T04:40:19.159Z,100404.72
2023-03-21T04:45:22.504Z,100407.31
2023-03-21T04:50:24.504Z,100408.16
2023-03-21T04:55:28.304Z,100414.19
2023-03-21T05:00:39.283Z,100414.19
2023-03-21T05:05:41.585Z,100420.16
2023-03-21T05:10:43.888Z,100421.88
2023-03-21T05:15:46.015Z,100426.16
2023-03-21T05:20:54.389Z,100418.47
2023-03-21T05:25:56.324Z,100427.84
2023-03-21T05:31:05.369Z,100429.56
2023-03-21T05:36:09.979Z,100435.59
2023-03-21T05:41:15.078Z,100435.59
2023-03-21T05:46:17.172Z,100437.31
2023-03-21T05:51:23.274Z,100439.88
2023-03-21T05:56:26.438Z,100446.72
2023-03-21T06:01:28.432Z,100451.03
2023-03-21T06:06:30.299Z,100458.69
2023-03-21T06:11:36.437Z,100475.81
2023-03-21T06:11:56.945Z,100471.53
2023-03-21T06:12:08.963Z,100460.41
2023-03-21T06:12:20.892Z,100464.66
2023-03-21T06:12:35.204Z,100463.81
2023-03-21T06:12:47.114Z,100460.34
2023-03-21T06:12:59.072Z,100465.47
2023-03-21T06:13:11.035Z,100468.91
2023-03-21T06:13:22.977Z,100463.78
2023-03-21T06:13:34.879Z,100469.75
2023-03-21T06:13:46.751Z,100470.63
2023-03-21T06:14:01.250Z,100462.03
2023-03-21T06:14:13.155Z,100468.03
2023-03-21T06:14:25.638Z,100463.75
2023-03-21T06:14:37.649Z,100464.59
2023-03-21T06:14:50.480Z,100468.88
2023-03-21T06:15:04.611Z,100465.47
2023-03-21T06:15:16.954Z,100468.03
2023-03-21T06:15:29.115Z,100464.59
2023-03-21T06:25:45.261Z,100465.38
2023-03-21T06:45:09.990Z,100485.88
2023-03-21T06:55:12.140Z,100489.19
2023-03-21T07:05:17.370Z,100491.63
2023-03-21T07:15:19.417Z,100504.34
2023-03-21T07:25:22.458Z,100505.66
2023-03-21T07:35:24.498Z,100502.19
2023-03-21T07:45:27.700Z,100508.06
2023-03-21T07:55:40.246Z,100505.44
2023-03-21T08:05:42.753Z,100508.28
2023-03-21T08:15:45.802Z,100512.22
2023-03-21T08:25:58.057Z,100522.16
2023-03-21T08:36:01.180Z,100516.53
2023-03-21T08:46:09.274Z,100523.25
2023-03-21T08:56:13.317Z,100528.34
2023-03-21T09:06:17.685Z,100547.13
2023-03-21T09:16:28.773Z,100547.22
2023-03-21T09:26:31.472Z,100559.13
2023-03-21T09:36:44.401Z,100564.75
2023-03-21T09:47:09.491Z,100566.28
2023-03-21T09:57:23.689Z,100580.50
2023-03-21T10:07:31.239Z,100568.38
2023-03-21T10:18:10.547Z,100578.38
2023-03-21T10:28:27.286Z,100584.91
2023-03-21T10:38:31.551Z,100577.09
2023-03-21T10:48:39.979Z,100587.19
2023-03-21T10:58:47.256Z,100589.03
2023-03-21T11:08:56.976Z,100575.03
2023-03-21T11:19:16.385Z,100572.03
2023-03-21T11:29:24.487Z,100564.13
2023-03-21T11:39:41.344Z,100566.66
2023-03-21T11:49:58.409Z,100560.28
2023-03-21T12:00:26.562Z,100558.13
2023-03-21T12:10:47.930Z,100541.78
2023-03-21T12:21:21.136Z,100544.16
2023-03-21T12:32:08.685Z,100540.59
2023-03-21T12:42:35.184Z,100542.72
2023-03-21T12:52:48.835Z,100555.34
2023-03-21T13:03:21.059Z,100550.84
2023-03-21T13:13:33.601Z,100544.41
2023-03-21T13:23:38.307Z,100537.31
2023-03-21T13:33:45.315Z,100525.31
2023-03-21T13:44:08.998Z,100519.16
2023-03-21T13:54:14.186Z,100526.34
2023-03-21T14:04:26.339Z,100516.81
2023-03-21T14:14:44.494Z,100524.88
2023-03-21T14:25:10.209Z,100527.69
2023-03-21T14:35:12.983Z,100523.44
2023-03-21T14:45:23.341Z,100515.69
2023-03-21T14:55:26.096Z,100510.50
2023-03-21T15:05:46.437Z,100509.69
2023-03-21T15:16:00.326Z,100508.25
2023-03-21T15:26:04.364Z,100504.06
2023-03-21T15:36:10.363Z,100500.63
2023-03-21T15:46:33.425Z,100495.09
2023-03-21T15:56:36.566Z,100499.84
2023-03-21T16:06:53.669Z,100501.09
2023-03-21T16:16:58.390Z,100488.63
2023-03-21T16:27:00.794Z,100495.03
2023-03-21T16:37:03.620Z,100495.38
2023-03-21T16:47:15.831Z,100503.94
2023-03-21T16:57:30.466Z,100510.41
2023-03-21T17:07:44.293Z,100530.81
2023-03-21T17:17:50.483Z,100536.84
2023-03-21T17:27:54.340Z,100546.44
2023-03-21T17:37:59.162Z,100544.75
2023-03-21T17:48:03.212Z,100567.09
2023-03-21T17:58:13.284Z,100576.50
2023-03-21T18:08:27.345Z,100587.53
2023-03-21T18:18:32.175Z,100585.75
2023-03-21T18:28:39.735Z,100601.06
2023-03-21T18:38:46.798Z,100604.25
2023-03-21T18:49:07.888Z,100610.34
2023-03-21T18:59:23.080Z,100606.25
2023-03-21T19:09:32.459Z,100600.75
2023-03-21T19:19:36.834Z,100608.38
2023-03-21T19:29:57.004Z,100608.94
2023-03-21T19:40:10.819Z,100606.44
2023-03-21T20:00:38.449Z,100610.25
2023-03-21T20:10:44.408Z,100616.19
2023-03-21T20:20:53.287Z,100621.78
2023-03-21T20:31:05.887Z,100632.66
2023-03-21T20:41:15.878Z,100620.69
2023-03-21T21:01:59.874Z,100618.13
2023-03-21T21:12:07.121Z,100616.31
2023-03-21T21:22:12.622Z,100612.94
2023-03-21T21:32:17.019Z,100618.31
2023-03-21T21:42:20.180Z,100610.94
2023-03-21T21:52:24.436Z,100610.50
2023-03-21T22:02:50.281Z,100627.97
2023-03-21T22:13:02.269Z,100625.50
2023-03-21T22:23:05.239Z,100627.22
2023-03-21T22:33:09.878Z,100618.31
2023-03-21T22:43:12.373Z,100605.38
2023-03-21T22:53:16.409Z,100614.44
2023-03-21T23:03:18.673Z,100607.91
2023-03-21T23:13:26.918Z,100610.84
2023-03-21T23:23:36.968Z,100614.91
2023-03-21T23:33:39.113Z,100613.97
2023-03-21T23:43:42.774Z,100602.19
2023-03-21T23:53:56.907Z,100590.53
